sensor_id;sensor_type;location;lat;lon;timestamp;P1;durP1;ratioP1;P2;durP2;ratioP2
4563;SDS011;2294;51.818;8.484;2022-12-07T00:01:23;45.23;;;22.23;;
4563;SDS011;2294;51.818;8.484;2022-12-07T00:03:54;40.70;;;20.67;;
4563;SDS011;2294;51.818;8.484;2022-12-07T00:06:25;35.90;;;19.60;;
4563;SDS011;2294;51.818;8.484;2022-12-07T00:08:52;39.57;;;22.00;;
4563;SDS011;2294;51.818;8.484;2022-12-07T00:11:20;35.60;;;20.10;;
4563;SDS011;2294;51.818;8.484;2022-12-07T00:13:50;43.97;;;22.13;;
4563;SDS011;2294;51.818;8.484;2022-12-07T00:16:19;43.13;;;22.80;;
4563;SDS011;2294;51.818;8.484;2022-12-07T00:18:46;41.30;;;22.67;;
4563;SDS011;2294;51.818;8.484;2022-12-07T00:21:15;41.63;;;24.07;;
4563;SDS011;2294;51.818;8.484;2022-12-07T00:23:44;40.50;;;22.10;;
4563;SDS011;2294;51.818;8.484;2022-12-07T00:26:14;45.17;;;24.50;;
4563;SDS011;2294;51.818;8.484;2022-12-07T00:28:44;41.87;;;21.27;;
4563;SDS011;2294;51.818;8.484;2022-12-07T00:31:12;38.50;;;20.57;;
4563;SDS011;2294;51.818;8.484;2022-12-07T00:33:40;40.60;;;21.80;;
4563;SDS011;2294;51.818;8.484;2022-12-07T00:36:07;42.93;;;23.77;;
4563;SDS011;2294;51.818;8.484;2022-12-07T00:38:37;42.47;;;22.90;;
4563;SDS011;2294;51.818;8.484;2022-12-07T00:41:06;41.60;;;23.07;;
4563;SDS011;2294;51.818;8.484;2022-12-07T00:43:37;46.33;;;23.10;;
4563;SDS011;2294;51.818;8.484;2022-12-07T00:46:04;43.27;;;23.10;;
4563;SDS011;2294;51.818;8.484;2022-12-07T00:48:31;46.30;;;24.23;;
4563;SDS011;2294;51.818;8.484;2022-12-07T00:50:58;49.30;;;25.10;;
4563;SDS011;2294;51.818;8.484;2022-12-07T00:53:25;45.97;;;22.57;;
4563;SDS011;2294;51.818;8.484;2022-12-07T00:55:53;43.93;;;21.30;;
4563;SDS011;2294;51.818;8.484;2022-12-07T00:58:21;45.37;;;23.50;;
4563;SDS011;2294;51.818;8.484;2022-12-07T01:00:48;38.93;;;20.20;;
4563;SDS011;2294;51.818;8.484;2022-12-07T01:03:15;43.97;;;23.00;;
4563;SDS011;2294;51.818;8.484;2022-12-07T01:05:48;40.60;;;21.00;;
4563;SDS011;2294;51.818;8.484;2022-12-07T01:08:16;48.57;;;21.37;;
4563;SDS011;2294;51.818;8.484;2022-12-07T01:10:44;48.27;;;24.47;;
4563;SDS011;2294;51.818;8.484;2022-12-07T01:13:12;43.93;;;22.97;;
4563;SDS011;2294;51.818;8.484;2022-12-07T01:15:39;33.47;;;19.40;;
4563;SDS011;2294;51.818;8.484;2022-12-07T01:18:06;38.20;;;20.10;;
4563;SDS011;2294;51.818;8.484;2022-12-07T01:20:33;43.93;;;20.97;;
4563;SDS011;2294;51.818;8.484;2022-12-07T01:23:01;33.47;;;18.70;;
4563;SDS011;2294;51.818;8.484;2022-12-07T01:25:28;47.10;;;22.37;;
4563;SDS011;2294;51.818;8.484;2022-12-07T01:27:55;42.93;;;21.00;;
4563;SDS011;2294;51.818;8.484;2022-12-07T01:30:23;48.90;;;22.27;;
4563;SDS011;2294;51.818;8.484;2022-12-07T01:32:50;30.23;;;16.17;;
4563;SDS011;2294;51.818;8.484;2022-12-07T01:35:17;37.90;;;20.03;;
4563;SDS011;2294;51.818;8.484;2022-12-07T01:37:43;32.87;;;18.40;;
4563;SDS011;2294;51.818;8.484;2022-12-07T01:40:10;29.80;;;15.93;;
4563;SDS011;2294;51.818;8.484;2022-12-07T01:42:38;35.70;;;19.17;;
4563;SDS011;2294;51.818;8.484;2022-12-07T01:48:09;24.83;;;15.47;;
4563;SDS011;2294;51.818;8.484;2022-12-07T01:50:38;30.63;;;17.70;;
4563;SDS011;2294;51.818;8.484;2022-12-07T01:53:08;31.17;;;17.27;;
4563;SDS011;2294;51.818;8.484;2022-12-07T01:55:37;24.80;;;15.20;;
4563;SDS011;2294;51.818;8.484;2022-12-07T01:58:07;37.47;;;18.67;;
4563;SDS011;2294;51.818;8.484;2022-12-07T02:00:35;36.83;;;19.10;;
4563;SDS011;2294;51.818;8.484;2022-12-07T02:03:03;33.27;;;18.30;;
4563;SDS011;2294;51.818;8.484;2022-12-07T02:05:35;28.47;;;16.03;;
4563;SDS011;2294;51.818;8.484;2022-12-07T02:08:04;38.00;;;17.83;;
4563;SDS011;2294;51.818;8.484;2022-12-07T02:10:31;33.03;;;18.10;;
4563;SDS011;2294;51.818;8.484;2022-12-07T02:12:59;31.50;;;18.27;;
4563;SDS011;2294;51.818;8.484;2022-12-07T02:15:29;36.30;;;17.33;;
4563;SDS011;2294;51.818;8.484;2022-12-07T02:18:06;46.20;;;22.90;;
4563;SDS011;2294;51.818;8.484;2022-12-07T02:20:41;44.60;;;20.47;;
4563;SDS011;2294;51.818;8.484;2022-12-07T02:26:31;33.60;;;17.80;;
4563;SDS011;2294;51.818;8.484;2022-12-07T02:29:21;34.03;;;18.93;;
4563;SDS011;2294;51.818;8.484;2022-12-07T02:31:55;27.30;;;15.70;;
4563;SDS011;2294;51.818;8.484;2022-12-07T02:34:32;38.17;;;17.13;;
4563;SDS011;2294;51.818;8.484;2022-12-07T02:37:09;43.63;;;23.03;;
4563;SDS011;2294;51.818;8.484;2022-12-07T02:39:42;37.60;;;18.70;;
4563;SDS011;2294;51.818;8.484;2022-12-07T02:42:13;33.50;;;17.60;;
4563;SDS011;2294;51.818;8.484;2022-12-07T02:44:46;32.00;;;17.60;;
4563;SDS011;2294;51.818;8.484;2022-12-07T02:47:14;27.07;;;15.60;;
4563;SDS011;2294;51.818;8.484;2022-12-07T02:49:45;28.60;;;15.93;;
4563;SDS011;2294;51.818;8.484;2022-12-07T02:52:12;30.93;;;17.00;;
4563;SDS011;2294;51.818;8.484;2022-12-07T02:54:39;36.27;;;18.93;;
4563;SDS011;2294;51.818;8.484;2022-12-07T02:57:11;32.60;;;18.70;;
4563;SDS011;2294;51.818;8.484;2022-12-07T02:59:59;25.30;;;14.13;;
4563;SDS011;2294;51.818;8.484;2022-12-07T03:02:32;19.73;;;11.97;;
4563;SDS011;2294;51.818;8.484;2022-12-07T03:05:10;30.30;;;14.87;;
4563;SDS011;2294;51.818;8.484;2022-12-07T03:07:48;12.80;;;6.50;;
4563;SDS011;2294;51.818;8.484;2022-12-07T03:10:22;26.23;;;11.97;;
4563;SDS011;2294;51.818;8.484;2022-12-07T03:12:55;23.33;;;13.10;;
4563;SDS011;2294;51.818;8.484;2022-12-07T03:15:32;17.80;;;10.47;;
4563;SDS011;2294;51.818;8.484;2022-12-07T03:18:01;17.73;;;11.07;;
4563;SDS011;2294;51.818;8.484;2022-12-07T03:20:30;18.70;;;11.50;;
4563;SDS011;2294;51.818;8.484;2022-12-07T03:23:00;19.27;;;10.50;;
4563;SDS011;2294;51.818;8.484;2022-12-07T03:25:29;18.87;;;10.40;;
4563;SDS011;2294;51.818;8.484;2022-12-07T03:27:56;24.33;;;11.97;;
4563;SDS011;2294;51.818;8.484;2022-12-07T03:30:27;17.80;;;10.87;;
4563;SDS011;2294;51.818;8.484;2022-12-07T03:33:01;24.00;;;11.60;;
4563;SDS011;2294;51.818;8.484;2022-12-07T03:35:33;20.30;;;11.90;;
4563;SDS011;2294;51.818;8.484;2022-12-07T03:38:04;16.60;;;10.30;;
4563;SDS011;2294;51.818;8.484;2022-12-07T03:40:40;18.07;;;9.90;;
4563;SDS011;2294;51.818;8.484;2022-12-07T03:43:15;20.50;;;12.33;;
4563;SDS011;2294;51.818;8.484;2022-12-07T03:45:44;18.60;;;11.17;;
4563;SDS011;2294;51.818;8.484;2022-12-07T03:48:21;14.50;;;9.10;;
4563;SDS011;2294;51.818;8.484;2022-12-07T03:50:52;14.50;;;9.23;;
4563;SDS011;2294;51.818;8.484;2022-12-07T03:53:28;22.67;;;10.53;;
4563;SDS011;2294;51.818;8.484;2022-12-07T03:55:59;23.47;;;9.93;;
4563;SDS011;2294;51.818;8.484;2022-12-07T03:58:28;15.27;;;8.27;;
4563;SDS011;2294;51.818;8.484;2022-12-07T04:00:56;12.50;;;7.47;;
4563;SDS011;2294;51.818;8.484;2022-12-07T04:03:24;15.67;;;8.30;;
4563;SDS011;2294;51.818;8.484;2022-12-07T04:05:51;16.70;;;9.40;;
4563;SDS011;2294;51.818;8.484;2022-12-07T04:08:18;22.37;;;9.87;;
4563;SDS011;2294;51.818;8.484;2022-12-07T04:10:45;15.70;;;8.60;;
4563;SDS011;2294;51.818;8.484;2022-12-07T04:13:12;16.20;;;7.53;;
4563;SDS011;2294;51.818;8.484;2022-12-07T04:15:38;18.23;;;9.20;;
4563;SDS011;2294;51.818;8.484;2022-12-07T04:18:05;17.53;;;9.67;;
4563;SDS011;2294;51.818;8.484;2022-12-07T04:20:34;27.87;;;11.60;;
4563;SDS011;2294;51.818;8.484;2022-12-07T04:23:00;20.30;;;10.70;;
4563;SDS011;2294;51.818;8.484;2022-12-07T04:25:27;17.97;;;9.00;;
4563;SDS011;2294;51.818;8.484;2022-12-07T04:27:54;19.27;;;10.83;;
4563;SDS011;2294;51.818;8.484;2022-12-07T04:30:21;23.43;;;13.60;;
4563;SDS011;2294;51.818;8.484;2022-12-07T04:32:48;18.30;;;11.23;;
4563;SDS011;2294;51.818;8.484;2022-12-07T04:35:15;22.00;;;12.10;;
4563;SDS011;2294;51.818;8.484;2022-12-07T04:37:43;31.30;;;16.00;;
4563;SDS011;2294;51.818;8.484;2022-12-07T04:40:10;34.53;;;14.97;;
4563;SDS011;2294;51.818;8.484;2022-12-07T04:42:39;34.17;;;15.07;;
4563;SDS011;2294;51.818;8.484;2022-12-07T04:45:06;25.43;;;13.83;;
4563;SDS011;2294;51.818;8.484;2022-12-07T04:47:34;35.10;;;16.30;;
4563;SDS011;2294;51.818;8.484;2022-12-07T04:50:01;41.97;;;16.63;;
4563;SDS011;2294;51.818;8.484;2022-12-07T04:52:28;38.37;;;17.70;;
4563;SDS011;2294;51.818;8.484;2022-12-07T04:54:56;40.57;;;17.37;;
4563;SDS011;2294;51.818;8.484;2022-12-07T04:57:23;34.10;;;14.67;;
4563;SDS011;2294;51.818;8.484;2022-12-07T04:59:49;45.87;;;15.87;;
4563;SDS011;2294;51.818;8.484;2022-12-07T05:02:16;28.87;;;14.00;;
4563;SDS011;2294;51.818;8.484;2022-12-07T05:04:43;24.30;;;12.90;;
4563;SDS011;2294;51.818;8.484;2022-12-07T05:07:10;35.93;;;15.20;;
4563;SDS011;2294;51.818;8.484;2022-12-07T05:09:37;24.77;;;12.70;;
4563;SDS011;2294;51.818;8.484;2022-12-07T05:12:05;32.10;;;15.30;;
4563;SDS011;2294;51.818;8.484;2022-12-07T05:14:32;22.87;;;11.67;;
4563;SDS011;2294;51.818;8.484;2022-12-07T05:16:59;24.53;;;11.90;;
4563;SDS011;2294;51.818;8.484;2022-12-07T05:19:26;19.60;;;10.97;;
4563;SDS011;2294;51.818;8.484;2022-12-07T05:21:53;27.23;;;13.40;;
4563;SDS011;2294;51.818;8.484;2022-12-07T05:24:20;33.37;;;13.60;;
4563;SDS011;2294;51.818;8.484;2022-12-07T05:26:47;20.10;;;11.00;;
4563;SDS011;2294;51.818;8.484;2022-12-07T05:29:16;29.73;;;13.63;;
4563;SDS011;2294;51.818;8.484;2022-12-07T05:31:43;29.80;;;12.53;;
4563;SDS011;2294;51.818;8.484;2022-12-07T05:34:11;24.27;;;12.63;;
4563;SDS011;2294;51.818;8.484;2022-12-07T05:36:38;34.70;;;14.90;;
4563;SDS011;2294;51.818;8.484;2022-12-07T05:39:05;28.47;;;13.90;;
4563;SDS011;2294;51.818;8.484;2022-12-07T05:41:33;34.57;;;15.57;;
4563;SDS011;2294;51.818;8.484;2022-12-07T05:44:19;33.97;;;15.10;;
4563;SDS011;2294;51.818;8.484;2022-12-07T05:46:45;41.13;;;18.90;;
4563;SDS011;2294;51.818;8.484;2022-12-07T05:49:12;34.73;;;14.30;;
4563;SDS011;2294;51.818;8.484;2022-12-07T05:51:39;30.70;;;12.00;;
4563;SDS011;2294;51.818;8.484;2022-12-07T05:54:06;32.47;;;13.50;;
4563;SDS011;2294;51.818;8.484;2022-12-07T05:56:33;28.80;;;13.80;;
4563;SDS011;2294;51.818;8.484;2022-12-07T05:59:00;28.67;;;13.83;;
4563;SDS011;2294;51.818;8.484;2022-12-07T06:01:46;38.63;;;15.37;;
4563;SDS011;2294;51.818;8.484;2022-12-07T06:04:12;35.20;;;16.27;;
4563;SDS011;2294;51.818;8.484;2022-12-07T06:06:39;36.50;;;15.00;;
4563;SDS011;2294;51.818;8.484;2022-12-07T06:09:06;23.40;;;11.80;;
4563;SDS011;2294;51.818;8.484;2022-12-07T06:11:33;22.27;;;10.43;;
4563;SDS011;2294;51.818;8.484;2022-12-07T06:14:17;31.13;;;11.50;;
4563;SDS011;2294;51.818;8.484;2022-12-07T06:16:46;25.47;;;10.23;;
4563;SDS011;2294;51.818;8.484;2022-12-07T06:19:12;45.37;;;13.90;;
4563;SDS011;2294;51.818;8.484;2022-12-07T06:21:39;30.37;;;14.43;;
4563;SDS011;2294;51.818;8.484;2022-12-07T06:24:06;30.57;;;12.60;;
4563;SDS011;2294;51.818;8.484;2022-12-07T06:26:34;31.07;;;12.80;;
4563;SDS011;2294;51.818;8.484;2022-12-07T06:29:01;16.60;;;7.50;;
4563;SDS011;2294;51.818;8.484;2022-12-07T06:31:28;21.83;;;11.47;;
4563;SDS011;2294;51.818;8.484;2022-12-07T06:33:58;16.33;;;9.20;;
4563;SDS011;2294;51.818;8.484;2022-12-07T06:36:25;17.63;;;9.70;;
4563;SDS011;2294;51.818;8.484;2022-12-07T06:38:53;36.47;;;12.40;;
4563;SDS011;2294;51.818;8.484;2022-12-07T06:41:20;19.87;;;9.53;;
4563;SDS011;2294;51.818;8.484;2022-12-07T06:43:48;28.00;;;9.63;;
4563;SDS011;2294;51.818;8.484;2022-12-07T06:46:15;15.77;;;8.67;;
4563;SDS011;2294;51.818;8.484;2022-12-07T06:48:42;31.37;;;10.83;;
4563;SDS011;2294;51.818;8.484;2022-12-07T06:51:11;13.00;;;7.70;;
4563;SDS011;2294;51.818;8.484;2022-12-07T06:53:38;23.17;;;10.70;;
4563;SDS011;2294;51.818;8.484;2022-12-07T06:56:05;32.50;;;11.70;;
4563;SDS011;2294;51.818;8.484;2022-12-07T06:58:32;19.50;;;10.37;;
4563;SDS011;2294;51.818;8.484;2022-12-07T07:00:59;18.37;;;8.50;;
4563;SDS011;2294;51.818;8.484;2022-12-07T07:03:26;15.73;;;7.60;;
4563;SDS011;2294;51.818;8.484;2022-12-07T07:05:53;16.10;;;8.87;;
4563;SDS011;2294;51.818;8.484;2022-12-07T07:08:21;19.70;;;9.10;;
4563;SDS011;2294;51.818;8.484;2022-12-07T07:10:48;25.07;;;10.87;;
4563;SDS011;2294;51.818;8.484;2022-12-07T07:13:15;21.23;;;9.20;;
4563;SDS011;2294;51.818;8.484;2022-12-07T07:15:42;17.57;;;7.97;;
4563;SDS011;2294;51.818;8.484;2022-12-07T07:18:09;14.27;;;8.00;;
4563;SDS011;2294;51.818;8.484;2022-12-07T07:20:36;23.93;;;9.60;;
4563;SDS011;2294;51.818;8.484;2022-12-07T07:23:04;21.57;;;8.73;;
4563;SDS011;2294;51.818;8.484;2022-12-07T07:25:33;18.67;;;8.00;;
4563;SDS011;2294;51.818;8.484;2022-12-07T07:28:00;23.07;;;9.50;;
4563;SDS011;2294;51.818;8.484;2022-12-07T07:30:27;21.70;;;9.53;;
4563;SDS011;2294;51.818;8.484;2022-12-07T07:32:56;30.10;;;10.70;;
4563;SDS011;2294;51.818;8.484;2022-12-07T07:35:23;35.23;;;9.50;;
4563;SDS011;2294;51.818;8.484;2022-12-07T07:37:50;11.63;;;5.20;;
4563;SDS011;2294;51.818;8.484;2022-12-07T07:40:18;26.67;;;7.80;;
4563;SDS011;2294;51.818;8.484;2022-12-07T07:42:48;21.37;;;8.00;;
4563;SDS011;2294;51.818;8.484;2022-12-07T07:45:15;17.77;;;7.73;;
4563;SDS011;2294;51.818;8.484;2022-12-07T07:47:42;15.33;;;7.03;;
4563;SDS011;2294;51.818;8.484;2022-12-07T07:50:09;18.73;;;7.60;;
4563;SDS011;2294;51.818;8.484;2022-12-07T07:52:36;15.80;;;7.20;;
4563;SDS011;2294;51.818;8.484;2022-12-07T07:55:03;18.73;;;8.73;;
4563;SDS011;2294;51.818;8.484;2022-12-07T07:57:33;18.20;;;7.77;;
4563;SDS011;2294;51.818;8.484;2022-12-07T08:00:02;27.53;;;9.30;;
4563;SDS011;2294;51.818;8.484;2022-12-07T08:02:31;15.47;;;7.70;;
4563;SDS011;2294;51.818;8.484;2022-12-07T08:04:57;24.30;;;9.30;;
4563;SDS011;2294;51.818;8.484;2022-12-07T08:07:24;20.40;;;7.97;;
4563;SDS011;2294;51.818;8.484;2022-12-07T08:09:52;18.63;;;8.70;;
4563;SDS011;2294;51.818;8.484;2022-12-07T08:12:19;16.10;;;7.50;;
4563;SDS011;2294;51.818;8.484;2022-12-07T08:14:46;15.87;;;7.70;;
4563;SDS011;2294;51.818;8.484;2022-12-07T08:17:15;21.00;;;7.00;;
4563;SDS011;2294;51.818;8.484;2022-12-07T08:19:41;20.07;;;7.87;;
4563;SDS011;2294;51.818;8.484;2022-12-07T08:22:08;20.50;;;9.70;;
4563;SDS011;2294;51.818;8.484;2022-12-07T08:24:35;28.63;;;11.80;;
4563;SDS011;2294;51.818;8.484;2022-12-07T08:27:03;22.30;;;9.67;;
4563;SDS011;2294;51.818;8.484;2022-12-07T08:29:30;21.33;;;7.97;;
4563;SDS011;2294;51.818;8.484;2022-12-07T08:31:57;24.70;;;8.97;;
4563;SDS011;2294;51.818;8.484;2022-12-07T08:34:27;14.10;;;7.20;;
4563;SDS011;2294;51.818;8.484;2022-12-07T08:36:53;19.97;;;8.57;;
4563;SDS011;2294;51.818;8.484;2022-12-07T08:39:20;26.03;;;8.70;;
4563;SDS011;2294;51.818;8.484;2022-12-07T08:41:47;12.43;;;6.47;;
4563;SDS011;2294;51.818;8.484;2022-12-07T08:44:15;21.57;;;9.13;;
4563;SDS011;2294;51.818;8.484;2022-12-07T08:46:45;19.10;;;7.00;;
4563;SDS011;2294;51.818;8.484;2022-12-07T08:49:16;13.17;;;6.20;;
4563;SDS011;2294;51.818;8.484;2022-12-07T08:51:46;20.03;;;7.10;;
4563;SDS011;2294;51.818;8.484;2022-12-07T08:54:14;11.63;;;4.37;;
4563;SDS011;2294;51.818;8.484;2022-12-07T08:56:43;14.30;;;6.80;;
4563;SDS011;2294;51.818;8.484;2022-12-07T08:59:12;20.40;;;6.77;;
4563;SDS011;2294;51.818;8.484;2022-12-07T09:01:41;23.57;;;8.90;;
4563;SDS011;2294;51.818;8.484;2022-12-07T09:04:08;26.23;;;8.77;;
4563;SDS011;2294;51.818;8.484;2022-12-07T09:06:35;14.40;;;6.47;;
4563;SDS011;2294;51.818;8.484;2022-12-07T09:09:03;10.73;;;5.00;;
4563;SDS011;2294;51.818;8.484;2022-12-07T09:11:31;13.50;;;5.07;;
4563;SDS011;2294;51.818;8.484;2022-12-07T09:13:58;11.00;;;4.73;;
4563;SDS011;2294;51.818;8.484;2022-12-07T09:16:25;10.57;;;5.43;;
4563;SDS011;2294;51.818;8.484;2022-12-07T09:18:52;8.10;;;5.00;;
4563;SDS011;2294;51.818;8.484;2022-12-07T09:21:19;14.40;;;6.40;;
4563;SDS011;2294;51.818;8.484;2022-12-07T09:23:45;17.40;;;6.40;;
4563;SDS011;2294;51.818;8.484;2022-12-07T09:26:14;12.83;;;5.93;;
4563;SDS011;2294;51.818;8.484;2022-12-07T09:28:41;20.13;;;5.40;;
4563;SDS011;2294;51.818;8.484;2022-12-07T09:31:07;11.83;;;5.23;;
4563;SDS011;2294;51.818;8.484;2022-12-07T09:33:34;14.03;;;5.90;;
4563;SDS011;2294;51.818;8.484;2022-12-07T09:36:02;10.37;;;5.90;;
4563;SDS011;2294;51.818;8.484;2022-12-07T09:38:30;11.57;;;6.83;;
4563;SDS011;2294;51.818;8.484;2022-12-07T09:40:57;21.33;;;8.50;;
4563;SDS011;2294;51.818;8.484;2022-12-07T09:43:33;16.47;;;7.90;;
4563;SDS011;2294;51.818;8.484;2022-12-07T09:46:01;11.47;;;4.70;;
4563;SDS011;2294;51.818;8.484;2022-12-07T09:48:30;9.37;;;5.70;;
4563;SDS011;2294;51.818;8.484;2022-12-07T09:51:00;7.90;;;5.10;;
4563;SDS011;2294;51.818;8.484;2022-12-07T09:53:30;22.07;;;7.63;;
4563;SDS011;2294;51.818;8.484;2022-12-07T09:56:00;25.53;;;6.70;;
4563;SDS011;2294;51.818;8.484;2022-12-07T09:58:28;17.37;;;7.43;;
4563;SDS011;2294;51.818;8.484;2022-12-07T10:00:58;24.10;;;5.93;;
4563;SDS011;2294;51.818;8.484;2022-12-07T10:03:31;6.20;;;4.40;;
4563;SDS011;2294;51.818;8.484;2022-12-07T10:05:58;12.83;;;6.07;;
4563;SDS011;2294;51.818;8.484;2022-12-07T10:08:25;10.97;;;4.70;;
4563;SDS011;2294;51.818;8.484;2022-12-07T10:10:53;13.23;;;5.90;;
4563;SDS011;2294;51.818;8.484;2022-12-07T10:13:22;26.67;;;6.03;;
4563;SDS011;2294;51.818;8.484;2022-12-07T10:16:01;15.37;;;4.80;;
4563;SDS011;2294;51.818;8.484;2022-12-07T10:18:29;12.07;;;4.70;;
4563;SDS011;2294;51.818;8.484;2022-12-07T10:21:11;13.50;;;4.53;;
4563;SDS011;2294;51.818;8.484;2022-12-07T10:23:40;9.43;;;5.00;;
4563;SDS011;2294;51.818;8.484;2022-12-07T10:26:21;26.50;;;6.47;;
4563;SDS011;2294;51.818;8.484;2022-12-07T10:28:59;15.53;;;5.30;;
4563;SDS011;2294;51.818;8.484;2022-12-07T10:31:31;15.53;;;5.67;;
4563;SDS011;2294;51.818;8.484;2022-12-07T10:33:59;16.40;;;6.17;;
4563;SDS011;2294;51.818;8.484;2022-12-07T10:36:30;13.53;;;5.77;;
4563;SDS011;2294;51.818;8.484;2022-12-07T10:39:03;11.90;;;6.97;;
4563;SDS011;2294;51.818;8.484;2022-12-07T10:41:41;26.30;;;6.73;;
4563;SDS011;2294;51.818;8.484;2022-12-07T10:44:20;10.43;;;5.77;;
4563;SDS011;2294;51.818;8.484;2022-12-07T10:47:03;18.83;;;5.57;;
4563;SDS011;2294;51.818;8.484;2022-12-07T10:49:50;15.50;;;5.40;;
4563;SDS011;2294;51.818;8.484;2022-12-07T10:52:45;13.93;;;4.83;;
4563;SDS011;2294;51.818;8.484;2022-12-07T10:55:25;16.10;;;5.07;;
4563;SDS011;2294;51.818;8.484;2022-12-07T10:58:13;10.13;;;5.57;;
4563;SDS011;2294;51.818;8.484;2022-12-07T11:00:51;15.33;;;5.97;;
4563;SDS011;2294;51.818;8.484;2022-12-07T11:03:30;19.70;;;6.97;;
4563;SDS011;2294;51.818;8.484;2022-12-07T11:06:14;13.50;;;5.60;;
4563;SDS011;2294;51.818;8.484;2022-12-07T11:08:56;13.30;;;5.17;;
4563;SDS011;2294;51.818;8.484;2022-12-07T11:11:32;11.67;;;4.20;;
4563;SDS011;2294;51.818;8.484;2022-12-07T11:14:03;10.90;;;4.90;;
4563;SDS011;2294;51.818;8.484;2022-12-07T11:16:45;15.40;;;5.47;;
4563;SDS011;2294;51.818;8.484;2022-12-07T11:19:27;9.23;;;5.00;;
4563;SDS011;2294;51.818;8.484;2022-12-07T11:22:20;8.13;;;4.90;;
4563;SDS011;2294;51.818;8.484;2022-12-07T11:24:54;13.30;;;4.50;;
4563;SDS011;2294;51.818;8.484;2022-12-07T11:27:30;12.20;;;4.23;;
4563;SDS011;2294;51.818;8.484;2022-12-07T11:30:08;11.67;;;4.87;;
4563;SDS011;2294;51.818;8.484;2022-12-07T11:35:34;16.17;;;4.93;;
4563;SDS011;2294;51.818;8.484;2022-12-07T11:38:11;11.90;;;5.37;;
4563;SDS011;2294;51.818;8.484;2022-12-07T11:40:40;8.70;;;5.20;;
4563;SDS011;2294;51.818;8.484;2022-12-07T11:43:13;14.47;;;5.57;;
4563;SDS011;2294;51.818;8.484;2022-12-07T11:45:44;12.60;;;6.30;;
4563;SDS011;2294;51.818;8.484;2022-12-07T11:48:17;13.27;;;5.57;;
4563;SDS011;2294;51.818;8.484;2022-12-07T11:50:52;13.30;;;5.57;;
4563;SDS011;2294;51.818;8.484;2022-12-07T11:53:24;8.30;;;3.70;;
4563;SDS011;2294;51.818;8.484;2022-12-07T11:55:55;11.37;;;5.23;;
4563;SDS011;2294;51.818;8.484;2022-12-07T11:58:39;14.23;;;4.80;;
4563;SDS011;2294;51.818;8.484;2022-12-07T12:01:18;2.00;;;1.83;;
4563;SDS011;2294;51.818;8.484;2022-12-07T12:03:56;7.90;;;3.97;;
4563;SDS011;2294;51.818;8.484;2022-12-07T12:06:30;10.47;;;4.50;;
4563;SDS011;2294;51.818;8.484;2022-12-07T12:09:01;11.93;;;3.87;;
4563;SDS011;2294;51.818;8.484;2022-12-07T12:11:37;13.50;;;4.93;;
4563;SDS011;2294;51.818;8.484;2022-12-07T12:14:17;22.73;;;5.13;;
4563;SDS011;2294;51.818;8.484;2022-12-07T12:17:14;16.57;;;4.63;;
4563;SDS011;2294;51.818;8.484;2022-12-07T12:20:03;8.53;;;3.67;;
4563;SDS011;2294;51.818;8.484;2022-12-07T12:22:43;11.43;;;3.27;;
4563;SDS011;2294;51.818;8.484;2022-12-07T12:25:15;16.73;;;4.70;;
4563;SDS011;2294;51.818;8.484;2022-12-07T12:27:49;11.53;;;3.67;;
4563;SDS011;2294;51.818;8.484;2022-12-07T12:30:32;16.10;;;4.53;;
4563;SDS011;2294;51.818;8.484;2022-12-07T12:33:02;4.23;;;3.10;;
4563;SDS011;2294;51.818;8.484;2022-12-07T12:35:32;8.13;;;3.07;;
4563;SDS011;2294;51.818;8.484;2022-12-07T12:40:55;22.43;;;5.27;;
4563;SDS011;2294;51.818;8.484;2022-12-07T12:58:38;9.20;;;5.00;;
4563;SDS011;2294;51.818;8.484;2022-12-07T13:10:20;9.63;;;6.17;;
4563;SDS011;2294;51.818;8.484;2022-12-07T13:12:58;61.50;;;22.70;;
4563;SDS011;2294;51.818;8.484;2022-12-07T13:15:34;16.27;;;5.40;;
4563;SDS011;2294;51.818;8.484;2022-12-07T13:20:49;5.93;;;3.03;;
4563;SDS011;2294;51.818;8.484;2022-12-07T13:23:19;9.33;;;3.50;;
4563;SDS011;2294;51.818;8.484;2022-12-07T13:25:51;16.90;;;8.63;;
4563;SDS011;2294;51.818;8.484;2022-12-07T13:28:36;16.93;;;7.93;;
4563;SDS011;2294;51.818;8.484;2022-12-07T13:34:00;5.73;;;3.43;;
4563;SDS011;2294;51.818;8.484;2022-12-07T13:36:28;4.37;;;3.03;;
4563;SDS011;2294;51.818;8.484;2022-12-07T13:39:10;3.00;;;1.60;;
4563;SDS011;2294;51.818;8.484;2022-12-07T13:41:43;5.73;;;2.40;;
4563;SDS011;2294;51.818;8.484;2022-12-07T13:44:12;5.93;;;4.83;;
4563;SDS011;2294;51.818;8.484;2022-12-07T13:46:44;14.07;;;4.30;;
4563;SDS011;2294;51.818;8.484;2022-12-07T13:49:17;6.67;;;2.87;;
4563;SDS011;2294;51.818;8.484;2022-12-07T13:51:46;9.87;;;3.80;;
4563;SDS011;2294;51.818;8.484;2022-12-07T13:54:14;17.07;;;4.20;;
4563;SDS011;2294;51.818;8.484;2022-12-07T13:56:41;9.33;;;5.57;;
4563;SDS011;2294;51.818;8.484;2022-12-07T13:59:13;9.00;;;4.17;;
4563;SDS011;2294;51.818;8.484;2022-12-07T14:01:43;9.73;;;2.90;;
4563;SDS011;2294;51.818;8.484;2022-12-07T14:04:29;12.67;;;2.80;;
4563;SDS011;2294;51.818;8.484;2022-12-07T14:06:58;114.40;;;39.13;;
4563;SDS011;2294;51.818;8.484;2022-12-07T14:09:26;19.10;;;9.10;;
4563;SDS011;2294;51.818;8.484;2022-12-07T14:11:55;6.50;;;3.27;;
4563;SDS011;2294;51.818;8.484;2022-12-07T14:14:24;8.20;;;3.73;;
4563;SDS011;2294;51.818;8.484;2022-12-07T14:19:49;3.93;;;2.83;;
4563;SDS011;2294;51.818;8.484;2022-12-07T14:22:19;8.00;;;2.33;;
4563;SDS011;2294;51.818;8.484;2022-12-07T14:24:57;8.67;;;2.63;;
4563;SDS011;2294;51.818;8.484;2022-12-07T14:27:29;5.83;;;3.20;;
4563;SDS011;2294;51.818;8.484;2022-12-07T14:29:58;2.70;;;2.30;;
4563;SDS011;2294;51.818;8.484;2022-12-07T14:32:26;10.10;;;4.00;;
4563;SDS011;2294;51.818;8.484;2022-12-07T14:34:56;8.90;;;5.07;;
4563;SDS011;2294;51.818;8.484;2022-12-07T14:37:25;15.87;;;3.23;;
4563;SDS011;2294;51.818;8.484;2022-12-07T14:39:53;8.27;;;5.87;;
4563;SDS011;2294;51.818;8.484;2022-12-07T14:42:20;5.03;;;3.10;;
4563;SDS011;2294;51.818;8.484;2022-12-07T14:44:50;10.23;;;4.53;;
4563;SDS011;2294;51.818;8.484;2022-12-07T14:47:17;18.50;;;5.43;;
4563;SDS011;2294;51.818;8.484;2022-12-07T14:49:44;8.17;;;5.13;;
4563;SDS011;2294;51.818;8.484;2022-12-07T14:52:13;10.00;;;4.57;;
4563;SDS011;2294;51.818;8.484;2022-12-07T14:54:42;6.40;;;2.80;;
4563;SDS011;2294;51.818;8.484;2022-12-07T14:57:10;8.30;;;2.80;;
4563;SDS011;2294;51.818;8.484;2022-12-07T14:59:37;13.97;;;3.50;;
4563;SDS011;2294;51.818;8.484;2022-12-07T15:02:04;8.87;;;4.70;;
4563;SDS011;2294;51.818;8.484;2022-12-07T15:04:31;6.00;;;2.13;;
4563;SDS011;2294;51.818;8.484;2022-12-07T15:06:59;8.73;;;4.10;;
4563;SDS011;2294;51.818;8.484;2022-12-07T15:09:29;5.20;;;2.40;;
4563;SDS011;2294;51.818;8.484;2022-12-07T15:11:56;9.90;;;3.33;;
4563;SDS011;2294;51.818;8.484;2022-12-07T15:14:23;3.10;;;2.50;;
4563;SDS011;2294;51.818;8.484;2022-12-07T15:16:50;8.37;;;3.30;;
4563;SDS011;2294;51.818;8.484;2022-12-07T15:19:17;5.13;;;3.50;;
4563;SDS011;2294;51.818;8.484;2022-12-07T15:21:47;8.63;;;3.50;;
4563;SDS011;2294;51.818;8.484;2022-12-07T15:24:15;5.80;;;3.47;;
4563;SDS011;2294;51.818;8.484;2022-12-07T15:26:44;6.93;;;3.83;;
4563;SDS011;2294;51.818;8.484;2022-12-07T15:29:11;10.40;;;3.33;;
4563;SDS011;2294;51.818;8.484;2022-12-07T15:31:39;4.60;;;2.77;;
4563;SDS011;2294;51.818;8.484;2022-12-07T15:34:06;6.87;;;2.80;;
4563;SDS011;2294;51.818;8.484;2022-12-07T15:36:33;4.97;;;3.73;;
4563;SDS011;2294;51.818;8.484;2022-12-07T15:39:01;5.37;;;3.17;;
4563;SDS011;2294;51.818;8.484;2022-12-07T15:41:28;6.67;;;5.03;;
4563;SDS011;2294;51.818;8.484;2022-12-07T15:43:56;11.37;;;3.57;;
4563;SDS011;2294;51.818;8.484;2022-12-07T15:46:41;8.63;;;3.50;;
4563;SDS011;2294;51.818;8.484;2022-12-07T15:49:09;6.60;;;3.17;;
4563;SDS011;2294;51.818;8.484;2022-12-07T15:51:38;11.97;;;3.60;;
4563;SDS011;2294;51.818;8.484;2022-12-07T15:54:06;8.63;;;3.37;;
4563;SDS011;2294;51.818;8.484;2022-12-07T15:56:33;10.17;;;4.70;;
4563;SDS011;2294;51.818;8.484;2022-12-07T15:59:02;4.33;;;3.30;;
4563;SDS011;2294;51.818;8.484;2022-12-07T16:01:28;6.50;;;3.30;;